Time;durP1;ratioP1;P1;durP2;ratioP2;P2;SDS_P1;SDS_P2;PMS_P1;PMS_P2;Temp;Humidity;BMP_temperature;BMP_pressure;BME280_temperature;BME280_humidity;BME280_pressure;Samples;Min_cycle;Max_cycle;Signal;HPM_P1;HPM_P2
2021/09/14 00:00:35;;;;;;;12.30;10.40;;;;;;;;;;6215858;28;20090;-70
2021/09/14 00:03:38;;;;;;;14.23;10.70;;;;;;;;;;6215599;28;20081;-69
2021/09/14 00:06:40;;;;;;;15.50;11.40;;;;;;;;;;6213152;28;20148;-69
2021/09/14 00:09:42;;;;;;;13.40;11.30;;;;;;;;;;6248722;28;20037;-69
2021/09/14 00:12:43;;;;;;;104.13;74.60;;;;;;;;;;6236212;28;20659;-72
2021/09/14 00:15:45;;;;;;;17.42;14.95;;;;;;;;;;6204305;28;20041;-82
2021/09/14 00:18:48;;;;;;;353.15;212.13;;;;;;;;;;6213775;28;20038;-74
2021/09/14 00:21:50;;;;;;;127.72;81.05;;;;;;;;;;6205600;28;20081;-76
2021/09/14 00:24:51;;;;;;;396.55;258.13;;;;;;;;;;6212726;28;20073;-71
2021/09/14 00:27:53;;;;;;;48.95;33.08;;;;;;;;;;6210375;28;20521;-69
2021/09/14 00:30:54;;;;;;;18.05;11.70;;;;;;;;;;6231022;28;20847;-69
2021/09/14 00:33:57;;;;;;;13.85;11.07;;;;;;;;;;6212473;28;20536;-72
2021/09/14 00:36:59;;;;;;;12.10;10.27;;;;;;;;;;6210483;28;20100;-69
2021/09/14 00:40:00;;;;;;;12.10;9.35;;;;;;;;;;6216011;28;20109;-68
2021/09/14 00:43:02;;;;;;;10.35;8.73;;;;;;;;;;6209933;28;20124;-68
2021/09/14 00:46:04;;;;;;;15.38;8.48;;;;;;;;;;6210815;28;22286;-71
2021/09/14 00:49:07;;;;;;;11.85;8.05;;;;;;;;;;6211315;28;20045;-69
2021/09/14 00:52:09;;;;;;;10.88;9.50;;;;;;;;;;6206226;28;20147;-69
2021/09/14 00:55:11;;;;;;;9.82;8.82;;;;;;;;;;6213231;28;20137;-71
2021/09/14 00:58:13;;;;;;;11.32;8.40;;;;;;;;;;6216401;28;20229;-70
2021/09/14 01:01:15;;;;;;;11.85;8.80;;;;;;;;;;6208234;28;20486;-68
2021/09/14 01:04:18;;;;;;;11.80;8.77;;;;;;;;;;6211122;28;20157;-69
2021/09/14 01:07:20;;;;;;;15.75;8.85;;;;;;;;;;6213804;28;20580;-67
2021/09/14 01:10:22;;;;;;;11.80;8.30;;;;;;;;;;6207947;28;20128;-71
2021/09/14 01:13:24;;;;;;;13.27;8.45;;;;;;;;;;6214937;28;20077;-68
2021/09/14 01:16:26;;;;;;;10.15;8.07;;;;;;;;;;6207828;28;20170;-68
2021/09/14 01:19:29;;;;;;;11.15;8.00;;;;;;;;;;6220578;28;20136;-68
2021/09/14 01:22:32;;;;;;;14.27;8.75;;;;;;;;;;6213432;28;20078;-68
2021/09/14 01:25:34;;;;;;;12.13;8.50;;;;;;;;;;6214198;28;20054;-75
2021/09/14 01:28:35;;;;;;;13.30;9.02;;;;;;;;;;6216881;28;20473;-67
2021/09/14 01:31:38;;;;;;;12.50;8.57;;;;;;;;;;6204000;28;20204;-68
2021/09/14 01:34:40;;;;;;;10.55;8.00;;;;;;;;;;6218485;28;20046;-67
2021/09/14 01:37:43;;;;;;;11.85;7.88;;;;;;;;;;6214171;28;20366;-69
2021/09/14 01:40:47;;;;;;;12.95;8.40;;;;;;;;;;6211939;28;20054;-69
2021/09/14 01:43:50;;;;;;;10.57;8.20;;;;;;;;;;6233321;28;20042;-68
2021/09/14 01:46:52;;;;;;;10.45;8.95;;;;;;;;;;6206021;28;20101;-68
2021/09/14 01:49:53;;;;;;;14.35;7.88;;;;;;;;;;6209099;28;20053;-69
2021/09/14 01:52:59;;;;;;;15.93;9.23;;;;;;;;;;6209272;28;20188;-68
2021/09/14 01:56:04;;;;;;;16.02;9.35;;;;;;;;;;6209697;28;20143;-68
2021/09/14 01:59:06;;;;;;;15.98;9.00;;;;;;;;;;6214473;28;20050;-68
2021/09/14 02:02:12;;;;;;;13.18;8.80;;;;;;;;;;6205280;28;20053;-68
2021/09/14 02:05:17;;;;;;;14.40;9.38;;;;;;;;;;6209257;28;20053;-72
2021/09/14 02:08:47;;;;;;;12.82;9.25;;;;;;;;;;6211025;28;20120;-67
2021/09/14 02:38:58;;;;;;;13.32;10.60;;;;;;;;;;6212976;28;20088;-69
2021/09/14 02:59:01;;;;;;;22.88;12.00;;;;;;;;;;6216834;28;20443;-68
2021/09/14 03:02:04;;;;;;;15.05;11.20;;;;;;;;;;6205123;28;20150;-67
2021/09/14 03:05:07;;;;;;;12.35;10.98;;;;;;;;;;6209925;28;20141;-69
2021/09/14 03:08:08;;;;;;;16.38;12.30;;;;;;;;;;6206731;28;20045;-69
2021/09/14 03:11:12;;;;;;;13.63;11.55;;;;;;;;;;6205633;28;20060;-68
2021/09/14 03:14:15;;;;;;;19.30;11.43;;;;;;;;;;6212295;28;20399;-68
2021/09/14 03:17:16;;;;;;;16.40;11.85;;;;;;;;;;6201708;28;20050;-70
2021/09/14 03:20:18;;;;;;;16.42;11.82;;;;;;;;;;6206788;28;20064;-69
2021/09/14 03:23:20;;;;;;;17.23;11.60;;;;;;;;;;6200810;28;20540;-67
2021/09/14 03:26:21;;;;;;;18.95;11.88;;;;;;;;;;6210097;28;20108;-69
2021/09/14 03:29:24;;;;;;;16.83;11.73;;;;;;;;;;6213981;28;20064;-70
2021/09/14 03:32:26;;;;;;;18.35;11.82;;;;;;;;;;6197197;28;20058;-67
2021/09/14 03:35:27;;;;;;;15.02;11.68;;;;;;;;;;6201453;28;20872;-68
2021/09/14 03:38:29;;;;;;;18.52;11.48;;;;;;;;;;6211086;28;20115;-68
2021/09/14 03:41:31;;;;;;;18.23;11.02;;;;;;;;;;6207579;28;20479;-66
2021/09/14 03:44:34;;;;;;;16.73;10.68;;;;;;;;;;6210143;28;20528;-66
2021/09/14 03:47:35;;;;;;;19.90;11.93;;;;;;;;;;6197451;28;20056;-66
2021/09/14 03:50:37;;;;;;;14.65;10.40;;;;;;;;;;6206228;28;20112;-66
2021/09/14 03:53:39;;;;;;;13.25;10.10;;;;;;;;;;6214489;28;20053;-67
2021/09/14 03:56:40;;;;;;;15.93;9.73;;;;;;;;;;6207559;28;20045;-67
2021/09/14 03:59:43;;;;;;;11.02;8.98;;;;;;;;;;6215094;28;20117;-67
2021/09/14 04:02:47;;;;;;;13.60;10.25;;;;;;;;;;6203160;28;20343;-66
2021/09/14 04:05:59;;;;;;;12.40;9.90;;;;;;;;;;6207403;28;20058;-66
2021/09/14 04:09:01;;;;;;;13.37;10.27;;;;;;;;;;6212600;28;20058;-67
2021/09/14 04:12:03;;;;;;;21.75;10.88;;;;;;;;;;6205562;28;21135;-66
2021/09/14 04:15:08;;;;;;;11.93;9.48;;;;;;;;;;6214901;28;20061;-67
2021/09/14 04:18:10;;;;;;;11.50;9.35;;;;;;;;;;6205190;28;20090;-66
2021/09/14 04:21:12;;;;;;;13.10;9.95;;;;;;;;;;6211710;28;20126;-67
2021/09/14 04:24:14;;;;;;;18.27;9.55;;;;;;;;;;6217578;28;20735;-67
2021/09/14 04:27:16;;;;;;;15.82;9.98;;;;;;;;;;6209301;28;20052;-66
2021/09/14 04:30:19;;;;;;;15.45;9.55;;;;;;;;;;6211449;28;20101;-67
2021/09/14 04:33:21;;;;;;;17.50;9.18;;;;;;;;;;6208295;28;20106;-67
2021/09/14 04:36:22;;;;;;;12.40;9.98;;;;;;;;;;6209192;28;20058;-67
2021/09/14 04:39:24;;;;;;;18.02;9.85;;;;;;;;;;6214569;28;20145;-66
2021/09/14 04:42:26;;;;;;;15.55;9.40;;;;;;;;;;6209283;28;20156;-66
2021/09/14 04:45:29;;;;;;;16.23;9.43;;;;;;;;;;6211687;28;20111;-66
2021/09/14 04:48:30;;;;;;;18.27;9.15;;;;;;;;;;6214553;28;20052;-67
2021/09/14 04:51:32;;;;;;;17.50;10.07;;;;;;;;;;6211158;28;20058;-66
2021/09/14 04:54:34;;;;;;;19.90;9.82;;;;;;;;;;6219145;28;20061;-66
2021/09/14 04:57:36;;;;;;;21.83;9.88;;;;;;;;;;6208149;28;20060;-66
2021/09/14 05:00:39;;;;;;;12.07;8.95;;;;;;;;;;6211503;28;20054;-66
2021/09/14 05:03:41;;;;;;;12.05;9.10;;;;;;;;;;6214188;28;20125;-67
2021/09/14 05:06:42;;;;;;;13.30;9.35;;;;;;;;;;6208051;28;20197;-67
2021/09/14 05:09:44;;;;;;;13.05;9.10;;;;;;;;;;6215141;28;20058;-66
2021/09/14 05:12:46;;;;;;;22.95;10.38;;;;;;;;;;6210054;28;20064;-67
2021/09/14 05:15:49;;;;;;;19.10;9.65;;;;;;;;;;6207796;28;20145;-67
2021/09/14 05:18:50;;;;;;;12.05;9.43;;;;;;;;;;6212780;28;20138;-66
2021/09/14 05:21:52;;;;;;;12.80;9.07;;;;;;;;;;6208845;28;20064;-67
2021/09/14 05:24:53;;;;;;;13.60;8.90;;;;;;;;;;6214876;28;20042;-67
2021/09/14 05:27:55;;;;;;;15.95;9.35;;;;;;;;;;6210128;28;20101;-66
2021/09/14 05:30:59;;;;;;;13.88;9.07;;;;;;;;;;6206702;28;20077;-67
2021/09/14 05:34:00;;;;;;;11.52;9.50;;;;;;;;;;6212718;28;20534;-67
2021/09/14 05:37:02;;;;;;;20.15;9.65;;;;;;;;;;6213797;28;20162;-66
2021/09/14 05:40:05;;;;;;;17.13;10.90;;;;;;;;;;6219083;28;20050;-67
2021/09/14 05:43:07;;;;;;;19.80;12.82;;;;;;;;;;6216724;28;20764;-67
2021/09/14 05:46:10;;;;;;;16.83;11.77;;;;;;;;;;6208725;28;20056;-66
2021/09/14 05:49:11;;;;;;;21.10;12.32;;;;;;;;;;6209425;28;20101;-66
2021/09/14 05:52:13;;;;;;;21.40;13.13;;;;;;;;;;6203752;28;20100;-67
2021/09/14 05:55:14;;;;;;;20.17;13.93;;;;;;;;;;6207751;28;20041;-68
2021/09/14 05:58:16;;;;;;;16.65;13.85;;;;;;;;;;6213130;28;20050;-68
2021/09/14 06:01:19;;;;;;;22.95;15.55;;;;;;;;;;6208149;28;20050;-67
2021/09/14 06:04:20;;;;;;;20.15;14.43;;;;;;;;;;6210950;28;20135;-67
2021/09/14 06:07:22;;;;;;;23.85;15.20;;;;;;;;;;6208777;28;20136;-67
2021/09/14 06:10:24;;;;;;;27.92;15.50;;;;;;;;;;6214538;28;20058;-67
2021/09/14 06:13:25;;;;;;;28.38;16.38;;;;;;;;;;6221945;28;20823;-67
2021/09/14 06:16:29;;;;;;;23.50;16.05;;;;;;;;;;6213442;28;20092;-66
2021/09/14 06:19:31;;;;;;;28.88;17.42;;;;;;;;;;6218494;28;20125;-67
2021/09/14 06:22:33;;;;;;;26.60;16.60;;;;;;;;;;6208858;28;20050;-67
2021/09/14 06:25:36;;;;;;;26.85;17.98;;;;;;;;;;6207100;28;20153;-68
2021/09/14 06:28:38;;;;;;;23.65;15.95;;;;;;;;;;6220418;28;20053;-67
2021/09/14 06:31:41;;;;;;;21.08;16.45;;;;;;;;;;6201379;28;20381;-67
2021/09/14 06:34:43;;;;;;;23.13;16.30;;;;;;;;;;6215539;28;20104;-67
2021/09/14 06:37:44;;;;;;;20.60;16.73;;;;;;;;;;6206280;28;20140;-68
2021/09/14 06:40:46;;;;;;;21.70;15.82;;;;;;;;;;6220698;28;20051;-67
2021/09/14 06:43:47;;;;;;;22.48;16.00;;;;;;;;;;6218585;28;20053;-67
2021/09/14 06:46:51;;;;;;;17.55;15.65;;;;;;;;;;6203089;28;20082;-67
2021/09/14 06:49:53;;;;;;;20.88;15.02;;;;;;;;;;6213698;28;20054;-67
2021/09/14 06:52:54;;;;;;;19.35;15.93;;;;;;;;;;6212293;28;20042;-68
2021/09/14 06:55:56;;;;;;;19.92;16.45;;;;;;;;;;6216679;28;20089;-67
2021/09/14 06:58:58;;;;;;;18.48;14.07;;;;;;;;;;6212881;28;20054;-67
2021/09/14 07:02:01;;;;;;;22.73;16.15;;;;;;;;;;6205943;28;20096;-67
2021/09/14 07:05:02;;;;;;;20.45;13.55;;;;;;;;;;6218793;28;20058;-68
2021/09/14 07:08:04;;;;;;;18.65;14.30;;;;;;;;;;6206626;28;20124;-67
2021/09/14 07:11:06;;;;;;;16.25;13.48;;;;;;;;;;6209650;28;20046;-68
2021/09/14 07:14:08;;;;;;;15.38;12.40;;;;;;;;;;6217258;28;20053;-67
2021/09/14 07:17:11;;;;;;;14.88;12.57;;;;;;;;;;6203055;28;20049;-68
2021/09/14 07:20:12;;;;;;;;;;;;;;;;;;6207096;28;20121;-68
2021/09/14 07:23:14;;;;;;;14.73;11.65;;;;;;;;;;6218221;28;19933;-67
2021/09/14 07:26:16;;;;;;;14.10;12.13;;;;;;;;;;6211241;28;20069;-67
2021/09/14 07:29:17;;;;;;;14.90;11.15;;;;;;;;;;6220698;28;20042;-67
2021/09/14 07:32:20;;;;;;;15.63;11.38;;;;;;;;;;6196725;28;20045;-68
2021/09/14 07:35:22;;;;;;;;;;;;;;;;;;6204212;28;20510;-68
2021/09/14 07:38:23;;;;;;;15.32;11.85;;;;;;;;;;6210660;28;20349;-68
2021/09/14 07:41:25;;;;;;;11.27;8.98;;;;;;;;;;6200848;28;20264;-67
2021/09/14 07:44:27;;;;;;;11.90;9.23;;;;;;;;;;6212075;28;20111;-67
2021/09/14 07:47:29;;;;;;;11.88;8.27;;;;;;;;;;6201305;28;20133;-67
2021/09/14 07:50:31;;;;;;;11.63;9.45;;;;;;;;;;6203775;28;20121;-67
2021/09/14 07:53:33;;;;;;;14.30;9.38;;;;;;;;;;6208702;28;20110;-68
2021/09/14 07:56:34;;;;;;;12.15;8.63;;;;;;;;;;6208170;28;20110;-67
2021/09/14 07:59:36;;;;;;;9.85;8.20;;;;;;;;;;6216410;28;20701;-67
2021/09/14 08:02:39;;;;;;;10.85;7.90;;;;;;;;;;6211157;28;20141;-67
2021/09/14 08:05:40;;;;;;;;;;;;;;;;;;6222769;28;20406;-68
2021/09/14 08:08:42;;;;;;;9.68;8.02;;;;;;;;;;6223225;28;19956;-67
2021/09/14 08:11:44;;;;;;;11.50;7.65;;;;;;;;;;6219511;28;20584;-67
2021/09/14 08:14:45;;;;;;;14.27;7.13;;;;;;;;;;6224719;28;20122;-68
2021/09/14 08:17:48;;;;;;;14.90;6.90;;;;;;;;;;6213974;28;20071;-68
2021/09/14 08:20:49;;;;;;;;;;;;;;;;;;6218078;28;20459;-69
2021/09/14 08:23:51;;;;;;;7.47;6.68;;;;;;;;;;6230464;28;19949;-68
2021/09/14 08:26:53;;;;;;;7.38;6.35;;;;;;;;;;6226691;28;20073;-68
2021/09/14 08:29:54;;;;;;;7.88;5.93;;;;;;;;;;6228231;28;20172;-69
2021/09/14 08:32:57;;;;;;;7.88;5.72;;;;;;;;;;6215469;28;20074;-69
2021/09/14 08:35:59;;;;;;;;;;;;;;;;;;6222575;28;20153;-68
2021/09/14 08:39:00;;;;;;;7.72;6.10;;;;;;;;;;6222417;28;19991;-68
2021/09/14 08:42:02;;;;;;;7.07;5.78;;;;;;;;;;6214518;28;20473;-68
2021/09/14 08:45:05;;;;;;;8.97;6.63;;;;;;;;;;6221628;28;20110;-68
2021/09/14 08:48:09;;;;;;;;;;;;;;;;;;6218507;28;20061;-68
2021/09/14 08:51:10;;;;;;;10.73;6.30;;;;;;;;;;6218625;28;20017;-68
2021/09/14 08:54:12;;;;;;;11.13;6.35;;;;;;;;;;6223098;28;20046;-68
2021/09/14 08:57:14;;;;;;;8.05;6.45;;;;;;;;;;6217761;28;20077;-68
2021/09/14 09:00:16;;;;;;;8.77;6.97;;;;;;;;;;6220466;28;20049;-69
2021/09/14 09:03:23;;;;;;;7.88;5.93;;;;;;;;;;6222664;28;20057;-68
2021/09/14 09:06:31;;;;;;;13.27;6.90;;;;;;;;;;6224121;28;20425;-68
2021/09/14 09:09:33;;;;;;;9.75;6.18;;;;;;;;;;6225863;28;20045;-68
2021/09/14 09:12:38;;;;;;;7.72;6.15;;;;;;;;;;6226343;28;20136;-68
2021/09/14 09:15:40;;;;;;;11.68;7.03;;;;;;;;;;6217607;28;20045;-69
2021/09/14 09:18:50;;;;;;;7.97;7.17;;;;;;;;;;6223393;28;20050;-68
2021/09/14 09:21:59;;;;;;;13.70;6.63;;;;;;;;;;6218762;28;20104;-68
2021/09/14 09:25:01;;;;;;;14.18;8.13;;;;;;;;;;6224210;28;20045;-68
2021/09/14 09:28:08;;;;;;;11.35;8.23;;;;;;;;;;6221322;28;20046;-68
2021/09/14 09:31:13;;;;;;;9.07;6.70;;;;;;;;;;6219075;28;20054;-68
2021/09/14 09:34:17;;;;;;;9.68;7.90;;;;;;;;;;6225638;28;20478;-68
2021/09/14 09:37:23;;;;;;;6.90;6.20;;;;;;;;;;6216612;28;20070;-68
2021/09/14 09:40:25;;;;;;;11.35;7.18;;;;;;;;;;6218007;28;20187;-68
2021/09/14 09:43:28;;;;;;;;;;;;;;;;;;6222883;28;20073;-68
2021/09/14 09:46:31;;;;;;;12.77;7.33;;;;;;;;;;6209325;28;19940;-67
2021/09/14 09:49:34;;;;;;;10.98;6.88;;;;;;;;;;6220716;28;20044;-68
2021/09/14 09:52:36;;;;;;;12.60;6.70;;;;;;;;;;6213170;28;20053;-68
2021/09/14 09:55:39;;;;;;;9.07;6.80;;;;;;;;;;6219059;28;20069;-68
2021/09/14 09:58:42;;;;;;;10.85;7.05;;;;;;;;;;6228268;28;20046;-68
2021/09/14 10:02:00;;;;;;;14.45;6.80;;;;;;;;;;6220879;28;20042;-68
2021/09/14 10:05:06;;;;;;;8.15;6.10;;;;;;;;;;6225626;28;20073;-68
2021/09/14 10:08:10;;;;;;;10.35;6.50;;;;;;;;;;6223848;28;20057;-69
2021/09/14 10:11:13;;;;;;;9.93;6.85;;;;;;;;;;6222465;28;20118;-68
2021/09/14 10:14:16;;;;;;;12.77;6.60;;;;;;;;;;6226172;28;20060;-68
2021/09/14 10:17:18;;;;;;;12.02;8.75;;;;;;;;;;6214747;28;20133;-69
2021/09/14 10:20:25;;;;;;;10.30;8.32;;;;;;;;;;6222582;28;20131;-69
2021/09/14 10:23:34;;;;;;;10.65;9.20;;;;;;;;;;6228505;28;20062;-68
2021/09/14 10:26:36;;;;;;;11.18;8.30;;;;;;;;;;6219868;28;20065;-68
2021/09/14 10:29:39;;;;;;;10.27;7.30;;;;;;;;;;6209565;28;20486;-68
2021/09/14 10:32:42;;;;;;;15.52;8.50;;;;;;;;;;6213103;28;20441;-67
2021/09/14 10:35:46;;;;;;;10.10;8.70;;;;;;;;;;6214203;28;20413;-69
2021/09/14 10:38:49;;;;;;;11.18;8.23;;;;;;;;;;6220358;28;20516;-67
2021/09/14 10:41:52;;;;;;;10.65;8.00;;;;;;;;;;6202965;28;20054;-68
2021/09/14 10:44:54;;;;;;;11.77;8.32;;;;;;;;;;6220820;28;20064;-69
2021/09/14 10:47:56;;;;;;;7.97;7.07;;;;;;;;;;6206247;28;20462;-68
2021/09/14 10:51:10;;;;;;;12.50;8.70;;;;;;;;;;6211142;28;20100;-70
2021/09/14 10:54:20;;;;;;;15.98;7.90;;;;;;;;;;6217008;28;20111;-68
2021/09/14 10:57:32;;;;;;;9.50;7.63;;;;;;;;;;6208355;28;20486;-68
2021/09/14 11:00:35;;;;;;;50.57;9.83;;;;;;;;;;6205911;28;20522;-68
2021/09/14 11:03:36;;;;;;;41.70;8.77;;;;;;;;;;6212952;28;20137;-68
2021/09/14 11:06:39;;;;;;;14.55;7.45;;;;;;;;;;6214829;28;20559;-69
2021/09/14 11:09:41;;;;;;;11.18;7.75;;;;;;;;;;6218158;28;20119;-68
2021/09/14 11:12:46;;;;;;;11.83;7.47;;;;;;;;;;6214100;28;20077;-68
2021/09/14 11:15:49;;;;;;;9.25;7.13;;;;;;;;;;6210548;28;20070;-66
2021/09/14 11:18:51;;;;;;;20.27;8.30;;;;;;;;;;6212954;28;22101;-66
2021/09/14 11:21:54;;;;;;;10.70;7.10;;;;;;;;;;6201414;28;20146;-67
2021/09/14 11:24:55;;;;;;;10.43;6.95;;;;;;;;;;6225657;28;20061;-66
2021/09/14 11:27:58;;;;;;;18.67;8.10;;;;;;;;;;6210323;28;20050;-67
2021/09/14 11:31:02;;;;;;;10.73;7.53;;;;;;;;;;6208033;28;20057;-70
2021/09/14 11:34:05;;;;;;;9.73;7.32;;;;;;;;;;6239028;28;20100;-70
2021/09/14 11:37:08;;;;;;;10.88;7.38;;;;;;;;;;6213695;28;20045;-69
2021/09/14 11:40:21;;;;;;;11.55;7.60;;;;;;;;;;6213700;28;20148;-69
2021/09/14 11:43:24;;;;;;;9.65;7.07;;;;;;;;;;6222348;28;20116;-70
2021/09/14 11:46:26;;;;;;;8.55;7.68;;;;;;;;;;6208674;28;20089;-69
2021/09/14 11:49:28;;;;;;;9.63;8.30;;;;;;;;;;6218595;28;20065;-69
2021/09/14 11:52:31;;;;;;;8.70;7.78;;;;;;;;;;6210300;28;20120;-69
2021/09/14 11:55:33;;;;;;;10.52;7.05;;;;;;;;;;6217425;28;20117;-69
2021/09/14 11:58:35;;;;;;;9.90;7.37;;;;;;;;;;6227243;28;20061;-69
2021/09/14 12:01:41;;;;;;;10.38;7.15;;;;;;;;;;6208160;28;20089;-69
2021/09/14 12:04:43;;;;;;;7.47;6.68;;;;;;;;;;6223376;28;20647;-69
2021/09/14 12:07:55;;;;;;;7.00;6.28;;;;;;;;;;6212365;28;20470;-69
2021/09/14 12:10:57;;;;;;;10.80;6.95;;;;;;;;;;6214795;28;20110;-69
2021/09/14 12:14:00;;;;;;;7.67;6.97;;;;;;;;;;6216680;28;20135;-71
2021/09/14 12:17:03;;;;;;;7.38;6.45;;;;;;;;;;6211138;28;20061;-68
2021/09/14 12:20:06;;;;;;;9.35;6.85;;;;;;;;;;6217382;28;20073;-70
2021/09/14 12:23:09;;;;;;;9.90;6.82;;;;;;;;;;6218078;28;20204;-69
2021/09/14 12:26:18;;;;;;;7.13;6.32;;;;;;;;;;6217482;28;20113;-69
2021/09/14 12:29:20;;;;;;;8.85;6.75;;;;;;;;;;6222610;28;20504;-69
2021/09/14 12:32:22;;;;;;;8.13;7.10;;;;;;;;;;6216646;28;20054;-69
2021/09/14 12:35:23;;;;;;;10.10;6.65;;;;;;;;;;6223587;28;20038;-70
2021/09/14 12:38:26;;;;;;;9.07;6.80;;;;;;;;;;6234554;28;20144;-69
2021/09/14 12:41:28;;;;;;;11.77;5.85;;;;;;;;;;6223423;28;20085;-69
2021/09/14 12:44:30;;;;;;;8.27;5.97;;;;;;;;;;6219622;28;20164;-69
2021/09/14 12:47:32;;;;;;;9.07;6.53;;;;;;;;;;6215004;28;20072;-69
2021/09/14 12:50:33;;;;;;;12.07;6.33;;;;;;;;;;6209754;28;20045;-70
2021/09/14 12:53:37;;;;;;;8.40;6.18;;;;;;;;;;6219052;28;20052;-69
2021/09/14 12:56:38;;;;;;;12.30;6.20;;;;;;;;;;6215445;28;20050;-69
2021/09/14 12:59:40;;;;;;;13.45;6.57;;;;;;;;;;6219779;28;20122;-68
2021/09/14 13:02:42;;;;;;;8.57;5.60;;;;;;;;;;6204230;28;20061;-69
2021/09/14 13:05:44;;;;;;;10.02;5.90;;;;;;;;;;6205517;28;21047;-69
2021/09/14 13:08:47;;;;;;;12.00;5.80;;;;;;;;;;6215534;28;20133;-69
2021/09/14 13:11:48;;;;;;;;;;;;;;;;;;6211159;28;20594;-69
2021/09/14 13:18:09;;;;;;;6.72;5.47;;;;;;;;;;6218911;28;20049;-65
2021/09/14 13:21:12;;;;;;;9.13;5.13;;;;;;;;;;6231716;28;20073;-65
2021/09/14 13:24:15;;;;;;;7.15;5.30;;;;;;;;;;6235184;28;20487;-65
2021/09/14 13:27:17;;;;;;;6.53;5.15;;;;;;;;;;6231015;28;20065;-65
2021/09/14 13:30:18;;;;;;;9.80;5.10;;;;;;;;;;6238150;28;20045;-66
2021/09/14 13:33:20;;;;;;;7.63;5.30;;;;;;;;;;6239765;28;20061;-67
2021/09/14 13:36:22;;;;;;;7.85;5.00;;;;;;;;;;6237882;28;20576;-68
2021/09/14 13:39:25;;;;;;;8.35;5.40;;;;;;;;;;6241781;28;20053;-67
2021/09/14 13:42:28;;;;;;;7.55;5.10;;;;;;;;;;6235588;28;20402;-66
2021/09/14 13:48:50;;;;;;;9.57;6.30;;;;;;;;;;6239335;28;20045;-66
2021/09/14 13:51:52;;;;;;;8.50;5.82;;;;;;;;;;6241878;28;20042;-66
2021/09/14 13:54:55;;;;;;;6.65;5.43;;;;;;;;;;6247031;28;20073;-67
2021/09/14 13:57:57;;;;;;;8.82;6.10;;;;;;;;;;6246197;28;20065;-66
2021/09/14 14:00:58;;;;;;;11.27;6.78;;;;;;;;;;6240160;28;20481;-66
2021/09/14 14:04:00;;;;;;;7.07;5.90;;;;;;;;;;6248218;28;20130;-67
2021/09/14 14:07:01;;;;;;;8.63;6.00;;;;;;;;;;6244640;28;20069;-67
2021/09/14 14:10:06;;;;;;;6.95;6.25;;;;;;;;;;6256400;28;20042;-67
2021/09/14 14:13:07;;;;;;;11.48;6.45;;;;;;;;;;6255348;28;20037;-67
2021/09/14 14:16:09;;;;;;;8.40;6.40;;;;;;;;;;6244878;28;20077;-67
2021/09/14 14:19:11;;;;;;;8.23;6.00;;;;;;;;;;6251559;28;20556;-66
2021/09/14 14:22:12;;;;;;;12.13;6.30;;;;;;;;;;6250161;28;20041;-67
2021/09/14 14:25:15;;;;;;;7.32;6.35;;;;;;;;;;6256124;28;20041;-68
2021/09/14 14:28:17;;;;;;;12.27;6.63;;;;;;;;;;6246841;28;20084;-67
2021/09/14 14:31:18;;;;;;;9.50;6.47;;;;;;;;;;6236571;28;20204;-66
2021/09/14 14:34:20;;;;;;;9.05;6.53;;;;;;;;;;6239840;28;20101;-66
2021/09/14 14:37:22;;;;;;;10.75;6.70;;;;;;;;;;6233393;28;20564;-69
2021/09/14 14:40:25;;;;;;;10.88;7.30;;;;;;;;;;6237364;28;20131;-69
2021/09/14 14:43:27;;;;;;;13.40;6.50;;;;;;;;;;6241835;28;20159;-68
2021/09/14 14:46:28;;;;;;;9.05;7.35;;;;;;;;;;6233774;28;20064;-67
2021/09/14 14:49:30;;;;;;;8.68;7.57;;;;;;;;;;6231388;28;20105;-67
2021/09/14 14:52:31;;;;;;;6.75;5.75;;;;;;;;;;6233365;28;20425;-67
2021/09/14 14:55:35;;;;;;;16.08;7.03;;;;;;;;;;6237075;28;20110;-68
2021/09/14 14:58:36;;;;;;;16.10;6.32;;;;;;;;;;6234289;28;20065;-67
2021/09/14 15:01:38;;;;;;;12.38;7.43;;;;;;;;;;6237330;28;20136;-67
2021/09/14 15:04:39;;;;;;;8.77;6.80;;;;;;;;;;6236190;28;20064;-68
2021/09/14 15:07:42;;;;;;;8.60;7.13;;;;;;;;;;6233047;28;20057;-68
2021/09/14 15:10:45;;;;;;;14.65;7.68;;;;;;;;;;6235379;28;20543;-67
2021/09/14 15:13:47;;;;;;;23.15;7.85;;;;;;;;;;6236940;28;20037;-67
2021/09/14 15:16:49;;;;;;;35.28;10.38;;;;;;;;;;6227835;28;20159;-68
2021/09/14 15:19:51;;;;;;;13.43;7.82;;;;;;;;;;6233193;28;20046;-67
2021/09/14 15:22:52;;;;;;;23.98;8.32;;;;;;;;;;6242457;28;20128;-67
2021/09/14 15:25:57;;;;;;;11.27;7.10;;;;;;;;;;6235010;28;20091;-67
2021/09/14 15:28:59;;;;;;;111.35;13.10;;;;;;;;;;6238721;28;20121;-68
2021/09/14 15:32:01;;;;;;;16.40;7.18;;;;;;;;;;6228526;28;20179;-68
2021/09/14 15:35:03;;;;;;;11.10;7.07;;;;;;;;;;6240280;28;20391;-69
2021/09/14 15:38:16;;;;;;;7.82;6.35;;;;;;;;;;6236841;28;20524;-69
2021/09/14 15:41:19;;;;;;;8.48;7.07;;;;;;;;;;6233270;28;20077;-68
2021/09/14 15:44:21;;;;;;;;;;;;;;;;;;6237814;28;20101;-71
2021/09/14 15:47:24;;;;;;;12.65;6.78;;;;;;;;;;6226691;28;19936;-70
2021/09/14 15:50:25;;;;;;;16.65;7.13;;;;;;;;;;6232054;28;20050;-70
2021/09/14 15:53:28;;;;;;;14.55;6.80;;;;;;;;;;6240505;28;20292;-70
2021/09/14 15:56:31;;;;;;;22.90;7.45;;;;;;;;;;6232316;28;20053;-70
2021/09/14 15:59:33;;;;;;;17.02;6.63;;;;;;;;;;6238007;28;20110;-69
2021/09/14 16:02:35;;;;;;;13.52;6.55;;;;;;;;;;6223048;28;20406;-70
2021/09/14 16:05:36;;;;;;;9.45;6.97;;;;;;;;;;6229573;28;20345;-71
2021/09/14 16:08:38;;;;;;;8.43;6.10;;;;;;;;;;6236609;28;20140;-68
2021/09/14 16:11:42;;;;;;;12.13;6.93;;;;;;;;;;6229374;28;20218;-69
2021/09/14 16:14:44;;;;;;;11.65;6.22;;;;;;;;;;6234594;28;20074;-69
2021/09/14 16:17:46;;;;;;;10.10;6.75;;;;;;;;;;6224568;28;20072;-69
2021/09/14 16:20:48;;;;;;;19.55;7.07;;;;;;;;;;6225307;28;20110;-69
2021/09/14 16:23:49;;;;;;;52.38;8.60;;;;;;;;;;6232786;28;20068;-70
2021/09/14 16:26:52;;;;;;;16.45;6.63;;;;;;;;;;6225949;28;20057;-70
2021/09/14 16:29:54;;;;;;;11.95;6.15;;;;;;;;;;6233666;28;20139;-70
2021/09/14 16:32:56;;;;;;;18.13;7.22;;;;;;;;;;6226520;28;20054;-70
2021/09/14 16:36:01;;;;;;;19.90;7.22;;;;;;;;;;6228338;28;20049;-70
2021/09/14 16:39:03;;;;;;;29.10;7.13;;;;;;;;;;6238141;28;20048;-70
2021/09/14 16:42:06;;;;;;;42.35;8.23;;;;;;;;;;6235936;28;20053;-68
2021/09/14 16:45:09;;;;;;;19.67;6.95;;;;;;;;;;6240640;28;20053;-69
2021/09/14 16:48:12;;;;;;;25.15;6.63;;;;;;;;;;6235795;28;20049;-68
2021/09/14 16:51:14;;;;;;;34.90;7.18;;;;;;;;;;6234081;28;20094;-69
2021/09/14 16:54:16;;;;;;;14.80;6.93;;;;;;;;;;6240727;28;20046;-68
2021/09/14 16:57:19;;;;;;;18.80;6.30;;;;;;;;;;6230426;28;20046;-68
2021/09/14 17:00:21;;;;;;;13.63;6.95;;;;;;;;;;6236115;28;21680;-72
2021/09/14 17:03:23;;;;;;;11.00;6.97;;;;;;;;;;6229178;28;20127;-71
2021/09/14 17:06:25;;;;;;;12.25;7.47;;;;;;;;;;6233661;28;20789;-68
2021/09/14 17:09:27;;;;;;;10.57;6.13;;;;;;;;;;6234757;28;20080;-67
2021/09/14 17:12:31;;;;;;;13.55;6.18;;;;;;;;;;6231509;28;20128;-65
2021/09/14 17:15:32;;;;;;;25.50;7.40;;;;;;;;;;6231917;28;20502;-66
2021/09/14 17:18:35;;;;;;;23.08;7.57;;;;;;;;;;6232147;28;20357;-65
2021/09/14 17:21:37;;;;;;;20.27;7.65;;;;;;;;;;6229064;28;20053;-66
2021/09/14 17:24:39;;;;;;;26.58;8.07;;;;;;;;;;6235525;28;20139;-66
2021/09/14 17:27:42;;;;;;;21.35;7.57;;;;;;;;;;6233081;28;20789;-65
2021/09/14 17:30:43;;;;;;;21.38;7.57;;;;;;;;;;6233667;28;20045;-65
2021/09/14 17:33:45;;;;;;;13.48;7.72;;;;;;;;;;6229542;28;20623;-65
2021/09/14 17:36:47;;;;;;;12.70;7.55;;;;;;;;;;6236638;28;20127;-65
2021/09/14 17:39:48;;;;;;;9.50;6.75;;;;;;;;;;6236246;28;20524;-65
2021/09/14 17:42:51;;;;;;;13.45;7.63;;;;;;;;;;6229507;28;20056;-67
2021/09/14 17:45:53;;;;;;;;;;;;;;;;;;6226088;28;20041;-67
2021/09/14 17:48:54;;;;;;;10.27;6.97;;;;;;;;;;6229592;28;20383;-66
2021/09/14 17:51:56;;;;;;;14.65;7.60;;;;;;;;;;6229277;28;20473;-66
2021/09/14 17:54:57;;;;;;;12.55;7.50;;;;;;;;;;6240077;28;20066;-66
2021/09/14 17:58:00;;;;;;;10.85;7.25;;;;;;;;;;6228322;28;20069;-66
2021/09/14 18:01:02;;;;;;;15.68;8.15;;;;;;;;;;6225341;28;20057;-67
2021/09/14 18:04:03;;;;;;;12.13;8.15;;;;;;;;;;6237306;28;20060;-66
2021/09/14 18:07:05;;;;;;;29.15;9.40;;;;;;;;;;6225369;28;20141;-68
2021/09/14 18:10:08;;;;;;;12.32;7.90;;;;;;;;;;6244098;28;20103;-68
2021/09/14 18:13:11;;;;;;;11.90;7.25;;;;;;;;;;6237410;28;20049;-68
2021/09/14 18:16:12;;;;;;;10.32;7.70;;;;;;;;;;6229347;28;20268;-68
2021/09/14 18:19:14;;;;;;;12.45;6.93;;;;;;;;;;6242474;28;20067;-67
2021/09/14 18:22:16;;;;;;;11.40;8.20;;;;;;;;;;6232664;28;20064;-67
2021/09/14 18:25:17;;;;;;;13.98;9.27;;;;;;;;;;6238199;28;20101;-68
2021/09/14 18:28:20;;;;;;;15.90;8.38;;;;;;;;;;6234174;28;20132;-68
2021/09/14 18:31:22;;;;;;;10.15;7.85;;;;;;;;;;6223119;28;20107;-68
2021/09/14 18:34:23;;;;;;;16.10;8.43;;;;;;;;;;6241880;28;20093;-68
2021/09/14 18:37:25;;;;;;;12.73;8.63;;;;;;;;;;6231801;28;20096;-68
2021/09/14 18:40:27;;;;;;;13.35;9.23;;;;;;;;;;6235687;28;20072;-67
2021/09/14 18:43:30;;;;;;;15.20;9.60;;;;;;;;;;6240576;28;20068;-68
2021/09/14 18:46:32;;;;;;;11.90;9.25;;;;;;;;;;6226865;28;20550;-68
2021/09/14 18:49:34;;;;;;;23.65;10.75;;;;;;;;;;6235718;28;20057;-68
2021/09/14 18:52:36;;;;;;;20.90;11.80;;;;;;;;;;6228682;28;20050;-68